createdAt,value
2022-10-09T00:01:12.916Z,95199.80
2022-10-09T00:03:41.753Z,95200.57
2022-10-09T00:06:11.657Z,95195.83
2022-10-09T00:08:40.053Z,95196.36
2022-10-09T00:11:08.082Z,95196.74
2022-10-09T00:13:34.964Z,95200.72
2022-10-09T00:16:08.252Z,95199.92
2022-10-09T00:18:36.034Z,95198.44
2022-10-09T00:21:03.753Z,95194.63
2022-10-09T00:23:30.585Z,95196.36
2022-10-09T00:26:00.847Z,95193.48
2022-10-09T00:28:30.010Z,95193.77
2022-10-09T00:30:57.181Z,95190.48
2022-10-09T00:33:24.590Z,95186.02
2022-10-09T00:35:51.359Z,95184.76
2022-10-09T00:38:18.189Z,95180.94
2022-10-09T00:40:44.919Z,95180.88
2022-10-09T00:43:37.878Z,95182.31
2022-10-09T00:46:05.284Z,95183.52
2022-10-09T00:48:33.209Z,95181.09
2022-10-09T00:51:02.428Z,95181.06
2022-10-09T00:53:31.041Z,95178.45
2022-10-09T00:55:58.555Z,95172.13
2022-10-09T00:58:26.075Z,95170.23
2022-10-09T01:00:53.608Z,95169.86
2022-10-09T01:03:20.515Z,95170.48
2022-10-09T01:06:03.311Z,95173.72
2022-10-09T01:08:48.190Z,95172.25
2022-10-09T01:11:19.871Z,95173.11
2022-10-09T01:13:55.905Z,95170.06
2022-10-09T01:16:27.608Z,95176.35
2022-10-09T01:19:01.204Z,95178.28
2022-10-09T01:21:34.193Z,95173.55
2022-10-09T01:24:21.109Z,95171.25
2022-10-09T01:27:11.334Z,95173.89
2022-10-09T01:29:44.668Z,95175.58
2022-10-09T01:32:16.294Z,95168.38
2022-10-09T01:34:46.397Z,95169.13
2022-10-09T01:37:15.417Z,95170.28
2022-10-09T01:39:44.952Z,95173.51
2022-10-09T01:42:14.166Z,95172.43
2022-10-09T01:44:41.641Z,95170.81
2022-10-09T01:47:16.114Z,95172.72
2022-10-09T01:49:59.463Z,95170.97
2022-10-09T01:52:48.812Z,95170.09
2022-10-09T01:55:41.647Z,95170.82
2022-10-09T01:58:27.305Z,95169.04
2022-10-09T02:01:07.819Z,95175.51
2022-10-09T02:03:36.900Z,95179.52
2022-10-09T02:06:09.410Z,95183.36
2022-10-09T02:08:39.609Z,95180.48
2022-10-09T02:11:07.040Z,95181.23
2022-10-09T02:13:36.224Z,95180.04
2022-10-09T02:16:15.287Z,95178.69
2022-10-09T02:19:03.553Z,95176.90
2022-10-09T02:22:09.257Z,95181.27
2022-10-09T02:24:38.643Z,95192.36
2022-10-09T02:27:06.772Z,95199.70
2022-10-09T02:29:33.766Z,95196.85
2022-10-09T02:32:00.459Z,95200.69
2022-10-09T02:34:27.302Z,95198.56
2022-10-09T02:36:54.081Z,95196.42
2022-10-09T02:39:20.801Z,95197.34
2022-10-09T02:41:47.452Z,95194.66
2022-10-09T02:44:14.306Z,95198.20
2022-10-09T02:46:41.231Z,95202.45
2022-10-09T02:49:07.984Z,95204.05
2022-10-09T02:51:34.847Z,95205.29
2022-10-09T02:54:01.596Z,95207.81
2022-10-09T02:56:28.811Z,95210.90
2022-10-09T02:58:55.593Z,95215.84
2022-10-09T03:01:23.176Z,95219.38
2022-10-09T03:03:50.211Z,95225.70
2022-10-09T03:06:20.739Z,95226.53
2022-10-09T03:08:49.586Z,95229.96
2022-10-09T03:11:17.867Z,95228.55
2022-10-09T03:13:45.163Z,95226.63
2022-10-09T03:16:23.893Z,95226.80
2022-10-09T03:18:51.954Z,95228.02
2022-10-09T03:21:21.687Z,95227.58
2022-10-09T03:23:49.695Z,95228.69
2022-10-09T03:26:19.251Z,95225.30
2022-10-09T03:28:48.471Z,95225.56
2022-10-09T03:31:33.437Z,95227.30
2022-10-09T03:34:04.597Z,95225.65
2022-10-09T03:36:31.374Z,95224.00
2022-10-09T03:38:58.091Z,95226.13
2022-10-09T03:41:24.818Z,95227.48
2022-10-09T03:43:51.572Z,95226.41
2022-10-09T03:46:18.332Z,95227.54
2022-10-09T03:48:45.159Z,95223.86
2022-10-09T03:51:11.874Z,95225.69
2022-10-09T03:53:38.642Z,95224.01
2022-10-09T03:56:06.309Z,95227.30
2022-10-09T03:58:33.058Z,95222.80
2022-10-09T04:00:59.847Z,95226.88
2022-10-09T04:03:27.772Z,95226.81
2022-10-09T04:05:54.751Z,95234.30
2022-10-09T04:08:21.628Z,95238.05
2022-10-09T04:10:48.412Z,95240.17
2022-10-09T04:13:15.214Z,95241.97
2022-10-09T04:15:51.158Z,95241.92
2022-10-09T04:18:18.510Z,95244.46
2022-10-09T04:20:52.744Z,95240.91
2022-10-09T04:23:21.475Z,95238.69
2022-10-09T04:25:48.248Z,95239.34
2022-10-09T04:28:15.053Z,95240.00
2022-10-09T04:30:47.133Z,95240.81
2022-10-09T04:33:13.863Z,95241.08
2022-10-09T04:35:45.365Z,95242.27
2022-10-09T04:38:12.272Z,95243.48
2022-10-09T04:40:39.074Z,95242.67
2022-10-09T04:43:05.976Z,95244.70
2022-10-09T04:45:33.086Z,95244.36
2022-10-09T04:47:59.875Z,95247.98
2022-10-09T04:50:26.611Z,95251.08
2022-10-09T04:52:53.296Z,95256.31
2022-10-09T04:55:20.024Z,95256.80
2022-10-09T04:57:46.793Z,95259.77
2022-10-09T05:00:14.546Z,95257.75
2022-10-09T05:02:41.213Z,95259.42
2022-10-09T05:05:08.509Z,95262.87
2022-10-09T05:07:35.157Z,95266.29
2022-10-09T06:26:45.039Z,95348.71
2022-10-09T06:29:12.072Z,95350.78
2022-10-09T06:31:38.882Z,95353.80
2022-10-09T06:34:05.675Z,95358.21
2022-10-09T06:36:34.769Z,95357.57
2022-10-09T06:39:04.136Z,95362.00
2022-10-09T07:54:46.416Z,95396.67
2022-10-09T07:57:13.162Z,95395.67
2022-10-09T07:59:39.900Z,95395.52
2022-10-09T08:02:06.734Z,95394.46
2022-10-09T08:04:33.681Z,95394.84
2022-10-09T08:07:00.500Z,95397.81
2022-10-09T08:09:27.283Z,95403.02
2022-10-09T08:11:55.122Z,95404.11
2022-10-09T08:14:21.853Z,95399.44
2022-10-09T08:16:49.008Z,95401.92
2022-10-09T08:19:15.949Z,95401.04
2022-10-09T08:21:42.885Z,95402.50
2022-10-09T08:24:11.583Z,95406.78
2022-10-09T08:26:38.623Z,95410.14
2022-10-09T08:29:06.889Z,95403.12
2022-10-09T08:31:33.749Z,95399.41
2022-10-09T08:34:03.116Z,95393.91
2022-10-09T08:36:30.216Z,95389.90
2022-10-09T08:38:57.215Z,95391.95
2022-10-09T08:41:33.087Z,95393.11
2022-10-09T08:44:10.964Z,95391.59
2022-10-09T08:46:55.965Z,95389.84
2022-10-09T08:49:34.960Z,95386.10
2022-10-09T08:52:30.477Z,95377.02
2022-10-09T08:55:02.580Z,95380.50
2022-10-09T08:57:35.065Z,95377.53
2022-10-09T09:00:01.886Z,95377.13
2022-10-09T09:02:37.790Z,95372.99
2022-10-09T09:05:30.259Z,95373.91
2022-10-09T09:08:08.441Z,95367.96
2022-10-09T09:10:48.007Z,95368.27
2022-10-09T09:13:30.139Z,95369.00
2022-10-09T09:16:01.458Z,95371.56
2022-10-09T09:18:56.593Z,95370.87
2022-10-09T09:21:32.160Z,95369.19
2022-10-09T09:24:03.156Z,95365.34
2022-10-09T09:26:30.575Z,95370.13
2022-10-09T09:29:05.060Z,95372.94
2022-10-09T09:31:40.784Z,95377.98
2022-10-09T09:34:21.861Z,95375.27
2022-10-09T09:36:58.200Z,95373.34
2022-10-09T09:40:31.302Z,95368.38
2022-10-09T09:42:19.565Z,95370.50
2022-10-09T09:45:08.397Z,95363.52
2022-10-09T09:47:41.908Z,95362.22
2022-10-09T09:50:35.072Z,95364.02
2022-10-09T09:53:06.465Z,95367.90
2022-10-09T09:55:34.648Z,95366.52
2022-10-09T09:58:17.503Z,95369.34
2022-10-09T10:00:58.174Z,95368.46
2022-10-09T10:03:25.362Z,95360.85
2022-10-09T10:05:52.295Z,95356.32
2022-10-09T10:08:27.514Z,95354.17
2022-10-09T10:10:57.088Z,95351.95
2022-10-09T10:13:38.337Z,95351.80
2022-10-09T10:16:08.934Z,95342.17
2022-10-09T10:18:44.834Z,95345.86
2022-10-09T10:21:20.484Z,95349.96
2022-10-09T10:23:50.519Z,95352.91
2022-10-09T10:26:41.255Z,95357.95
2022-10-09T10:29:20.310Z,95354.40
2022-10-09T10:32:12.211Z,95355.54
2022-10-09T10:34:42.593Z,95357.55
2022-10-09T10:37:15.602Z,95355.23
2022-10-09T10:39:46.054Z,95353.06
2022-10-09T10:42:21.320Z,95349.32
2022-10-09T10:44:55.248Z,95352.03
2022-10-09T10:47:26.876Z,95358.33
2022-10-09T10:49:54.640Z,95353.11
2022-10-09T10:52:44.500Z,95346.02
2022-10-09T10:55:38.956Z,95350.34
2022-10-09T10:58:32.395Z,95349.53
2022-10-09T11:01:17.852Z,95347.65
2022-10-09T11:04:00.683Z,95338.66
2022-10-09T11:06:37.990Z,95343.38
2022-10-09T11:09:31.762Z,95338.41
2022-10-09T11:12:24.569Z,95338.73
2022-10-09T11:15:18.252Z,95333.73
2022-10-09T11:17:54.693Z,95329.56
2022-10-09T11:20:44.210Z,95334.66
2022-10-09T11:23:53.276Z,95342.58
2022-10-09T11:26:26.317Z,95338.67
2022-10-09T11:29:01.175Z,95337.03
2022-10-09T11:31:37.033Z,95340.43
2022-10-09T11:34:11.601Z,95334.32
2022-10-09T11:36:43.544Z,95337.19
2022-10-09T11:39:23.340Z,95331.66
2022-10-09T11:41:52.923Z,95332.60
2022-10-09T11:44:29.538Z,95327.79
2022-10-09T11:47:03.390Z,95329.56
2022-10-09T11:49:38.277Z,95328.96
2022-10-09T11:52:26.095Z,95322.80
2022-10-09T11:54:52.984Z,95321.77
2022-10-09T11:57:29.856Z,95319.20
2022-10-09T12:00:12.157Z,95315.27
2022-10-09T12:02:42.684Z,95315.73
2022-10-09T12:05:36.525Z,95316.46
2022-10-09T12:08:09.052Z,95316.79
2022-10-09T12:10:41.505Z,95316.72
2022-10-09T12:13:28.377Z,95312.86
2022-10-09T12:15:59.868Z,95309.73
2022-10-09T12:18:34.822Z,95306.28
2022-10-09T12:21:06.357Z,95308.58
2022-10-09T12:23:36.984Z,95305.73
2022-10-09T12:26:05.038Z,95306.42
2022-10-09T12:28:38.071Z,95303.33
2022-10-09T12:31:21.844Z,95301.51
2022-10-09T12:33:54.982Z,95297.05
2022-10-09T12:36:30.243Z,95297.72
2022-10-09T12:38:57.880Z,95293.21
2022-10-09T12:41:30.137Z,95294.05
2022-10-09T12:43:59.507Z,95294.44
2022-10-09T12:46:32.258Z,95304.52
2022-10-09T12:49:01.449Z,95300.66
2022-10-09T12:51:31.011Z,95304.36
2022-10-09T12:54:00.417Z,95297.95
2022-10-09T12:56:31.551Z,95296.83
2022-10-09T12:58:59.849Z,95297.36
2022-10-09T13:01:27.274Z,95296.35
2022-10-09T13:04:00.487Z,95295.64
2022-10-09T13:06:34.738Z,95293.75
2022-10-09T13:09:05.719Z,95290.55
2022-10-09T13:11:37.397Z,95287.45
2022-10-09T13:14:05.909Z,95284.52
2022-10-09T13:16:44.745Z,95283.69
2022-10-09T13:19:23.947Z,95285.95
2022-10-09T13:22:19.453Z,95284.92
2022-10-09T13:24:47.698Z,95281.34
2022-10-09T13:27:14.944Z,95281.23
2022-10-09T13:29:51.358Z,95282.59
2022-10-09T13:32:18.794Z,95278.09
2022-10-09T13:34:47.049Z,95280.12
2022-10-09T13:37:15.717Z,95278.77
2022-10-09T13:39:42.544Z,95278.55
2022-10-09T13:42:14.297Z,95281.09
2022-10-09T13:44:41.900Z,95273.95
2022-10-09T13:47:08.816Z,95272.73
2022-10-09T13:49:35.478Z,95273.71
2022-10-09T13:52:02.371Z,95272.80
2022-10-09T13:54:29.950Z,95276.40
2022-10-09T13:57:01.929Z,95276.42
2022-10-09T13:59:29.015Z,95279.03
2022-10-09T14:01:59.761Z,95274.66
2022-10-09T14:04:28.734Z,95273.14
2022-10-09T14:07:07.284Z,95275.67
2022-10-09T14:09:34.016Z,95276.97
2022-10-09T14:12:02.839Z,95276.23
2022-10-09T14:14:30.076Z,95274.44
2022-10-09T14:16:57.369Z,95269.27
2022-10-09T14:19:27.822Z,95269.52
2022-10-09T14:21:55.931Z,95264.58
2022-10-09T14:24:23.524Z,95261.48
2022-10-09T14:26:51.747Z,95264.91
2022-10-09T14:29:22.090Z,95260.61
2022-10-09T14:31:58.080Z,95260.13
2022-10-09T14:34:25.748Z,95257.14
2022-10-09T14:36:55.958Z,95250.49
2022-10-09T14:39:23.184Z,95251.17
2022-10-09T14:41:49.917Z,95248.45
2022-10-09T14:44:16.670Z,95255.13
2022-10-09T14:46:43.922Z,95260.55
2022-10-09T14:49:11.714Z,95260.63
2022-10-09T14:51:40.868Z,95258.86
2022-10-09T14:54:08.882Z,95253.74
2022-10-09T14:56:36.478Z,95258.08
2022-10-09T14:59:06.144Z,95259.07
2022-10-09T15:01:34.047Z,95257.55
2022-10-09T15:04:01.557Z,95258.73
2022-10-09T15:06:28.669Z,95250.53
2022-10-09T15:09:03.206Z,95255.63
2022-10-09T15:11:36.215Z,95263.27
2022-10-09T15:14:05.458Z,95268.55
2022-10-09T15:16:32.251Z,95272.05
2022-10-09T15:19:00.903Z,95278.90
2022-10-09T15:21:32.031Z,95277.78
2022-10-09T15:24:00.885Z,95277.25
2022-10-09T15:26:30.058Z,95278.00
2022-10-09T15:28:57.169Z,95280.91
2022-10-09T15:31:27.260Z,95283.46
2022-10-09T15:34:00.583Z,95280.61
2022-10-09T15:36:29.269Z,95276.05
2022-10-09T15:38:56.879Z,95279.02
2022-10-09T15:41:30.293Z,95277.50
2022-10-09T15:43:59.657Z,95282.66
2022-10-09T15:46:27.703Z,95287.34
2022-10-09T15:48:55.316Z,95284.40
2022-10-09T15:51:23.360Z,95282.65
2022-10-09T15:53:52.041Z,95282.09
2022-10-09T15:56:23.176Z,95279.87
2022-10-09T15:58:51.489Z,95283.84
2022-10-09T16:01:19.214Z,95286.15
2022-10-09T16:03:46.555Z,95287.89
2022-10-09T16:06:17.260Z,95290.64
2022-10-09T16:08:44.539Z,95289.90
2022-10-09T16:11:14.321Z,95295.64
2022-10-09T16:13:43.928Z,95303.91
2022-10-09T16:16:15.863Z,95306.19
2022-10-09T16:18:42.860Z,95305.31
2022-10-09T16:21:34.709Z,95302.91
2022-10-09T16:24:21.276Z,95306.65
2022-10-09T16:26:51.233Z,95307.48
2022-10-09T16:29:18.176Z,95310.80
2022-10-09T16:31:48.548Z,95317.94
2022-10-09T16:37:14.951Z,95330.54
2022-10-09T16:39:41.766Z,95333.63
2022-10-09T16:42:08.504Z,95341.98
2022-10-09T16:44:36.905Z,95345.55
2022-10-09T16:47:04.327Z,95345.34
2022-10-09T16:49:31.017Z,95348.23
2022-10-09T16:51:57.703Z,95347.76
2022-10-09T16:54:24.458Z,95349.16
2022-10-09T16:56:51.163Z,95349.47
2022-10-09T16:59:18.204Z,95349.39
2022-10-09T17:01:46.682Z,95349.16
2022-10-09T17:04:14.688Z,95357.93
2022-10-09T17:06:44.191Z,95361.48
2022-10-09T17:09:14.243Z,95367.19
2022-10-09T17:11:41.594Z,95368.07
2022-10-09T17:14:08.827Z,95370.23
2022-10-09T17:16:38.597Z,95371.22
2022-10-09T17:19:05.920Z,95373.83
2022-10-09T17:21:34.632Z,95376.94
2022-10-09T17:24:06.616Z,95379.66
2022-10-09T17:26:34.439Z,95379.20
2022-10-09T17:29:02.794Z,95383.34
2022-10-09T17:31:31.223Z,95388.59
2022-10-09T17:34:01.850Z,95390.21
2022-10-09T17:36:31.420Z,95396.25
2022-10-09T17:38:58.928Z,95398.30
2022-10-09T17:41:27.109Z,95406.02
2022-10-09T17:43:56.209Z,95407.20
2022-10-09T17:46:25.386Z,95408.87
2022-10-09T17:48:57.430Z,95408.80
2022-10-09T17:51:26.794Z,95411.59
2022-10-09T17:56:29.204Z,95420.86
2022-10-09T17:58:56.205Z,95417.94
2022-10-09T18:01:24.050Z,95416.03
2022-10-09T18:03:52.449Z,95416.16
2022-10-09T18:06:23.249Z,95417.46
2022-10-09T18:08:55.825Z,95417.63
2022-10-09T18:11:24.678Z,95423.13
2022-10-09T18:13:51.647Z,95420.77
2022-10-09T18:16:31.451Z,95421.69
2022-10-09T18:19:04.413Z,95423.93
2022-10-09T18:21:31.394Z,95429.77
2022-10-09T18:23:59.828Z,95429.73
2022-10-09T18:26:27.426Z,95436.27
2022-10-09T18:28:54.690Z,95438.61
2022-10-09T18:31:23.812Z,95445.05
2022-10-09T18:33:52.225Z,95446.00
2022-10-09T18:36:23.186Z,95446.70
2022-10-09T18:38:58.453Z,95441.81
2022-10-09T18:41:25.721Z,95445.02
2022-10-09T18:43:54.543Z,95447.90
2022-10-09T18:46:25.168Z,95455.36
2022-10-09T18:48:54.782Z,95461.23
2022-10-09T18:51:24.401Z,95460.38
2022-10-09T18:53:59.158Z,95461.35
2022-10-09T18:56:26.381Z,95463.25
2022-10-09T18:58:53.843Z,95464.89
2022-10-09T19:01:21.021Z,95468.38
2022-10-09T19:03:50.153Z,95469.59
2022-10-09T19:06:20.376Z,95471.05
2022-10-09T19:08:47.736Z,95472.29
2022-10-09T19:11:15.240Z,95479.41
2022-10-09T19:13:43.047Z,95489.81
2022-10-09T19:16:10.203Z,95495.80
2022-10-09T19:18:37.386Z,95493.90
2022-10-09T19:21:04.874Z,95496.68
2022-10-09T19:23:31.996Z,95496.80
2022-10-09T19:25:59.810Z,95496.84
2022-10-09T19:28:31.268Z,95494.31
2022-10-09T19:30:58.461Z,95498.64
2022-10-09T19:33:26.073Z,95499.95
2022-10-09T19:35:55.349Z,95502.90
2022-10-09T19:38:23.858Z,95507.25
2022-10-09T19:40:51.415Z,95507.90
2022-10-09T19:43:19.793Z,95507.87
2022-10-09T19:45:50.538Z,95509.55
2022-10-09T19:48:18.274Z,95504.34
2022-10-09T19:50:46.314Z,95504.52
2022-10-09T19:53:14.088Z,95504.73
2022-10-09T19:55:40.962Z,95503.47
2022-10-09T19:58:07.847Z,95505.45
2022-10-09T20:00:34.754Z,95504.33
2022-10-09T20:03:01.970Z,95507.89
2022-10-09T20:05:28.720Z,95509.13
2022-10-09T20:07:55.438Z,95505.58
2022-10-09T20:10:22.574Z,95504.26
2022-10-09T20:12:49.512Z,95506.49
2022-10-09T20:15:16.632Z,95504.50
2022-10-09T20:17:43.422Z,95502.16
2022-10-09T20:20:10.580Z,95501.30
2022-10-09T20:22:37.383Z,95505.20
2022-10-09T20:25:05.060Z,95500.91
2022-10-09T20:27:31.858Z,95503.05
2022-10-09T20:29:58.738Z,95502.61
2022-10-09T20:32:25.648Z,95500.77
2022-10-09T20:34:52.444Z,95495.59
2022-10-09T20:37:19.286Z,95495.33
2022-10-09T20:39:46.443Z,95493.80
2022-10-09T20:42:13.264Z,95494.32
2022-10-09T20:44:40.169Z,95492.72
2022-10-09T20:47:07.080Z,95493.45
2022-10-09T20:49:33.901Z,95493.44
2022-10-09T20:52:00.673Z,95490.38
2022-10-09T20:54:30.818Z,95494.98
2022-10-09T20:56:57.611Z,95492.30
2022-10-09T20:59:24.405Z,95494.36
2022-10-09T21:01:51.120Z,95490.29
2022-10-09T21:04:17.872Z,95494.05
2022-10-09T21:06:44.733Z,95500.42
2022-10-09T21:09:11.434Z,95498.95
2022-10-09T21:11:40.076Z,95499.57
2022-10-09T21:14:06.903Z,95495.61
2022-10-09T21:16:33.556Z,95494.16
2022-10-09T21:19:03.147Z,95497.53
2022-10-09T21:21:31.518Z,95497.92
2022-10-09T21:24:00.292Z,95502.13
2022-10-09T21:26:28.466Z,95499.70
2022-10-09T21:28:59.347Z,95508.84
2022-10-09T21:31:29.301Z,95511.05
2022-10-09T21:33:58.885Z,95518.09
2022-10-09T21:37:19.374Z,95520.23
2022-10-09T21:39:36.397Z,95526.20
2022-10-09T21:42:03.205Z,95520.73
2022-10-09T21:44:30.401Z,95522.45
2022-10-09T21:46:57.472Z,95520.19
2022-10-09T21:49:27.450Z,95520.58
2022-10-09T21:51:54.768Z,95517.85
2022-10-09T21:54:21.783Z,95509.95
2022-10-09T21:56:48.888Z,95507.84
2022-10-09T21:59:15.684Z,95509.89
2022-10-09T22:01:42.525Z,95508.11
2022-10-09T22:04:09.368Z,95505.86
2022-10-09T22:06:36.047Z,95504.15
2022-10-09T22:09:03.828Z,95500.34
2022-10-09T22:11:30.632Z,95501.34
2022-10-09T22:13:57.393Z,95502.67
2022-10-09T22:16:24.238Z,95502.80
2022-10-09T22:18:50.967Z,95500.80
2022-10-09T22:21:17.936Z,95500.27
2022-10-09T22:23:45.071Z,95498.77
2022-10-09T22:26:15.002Z,95499.98
2022-10-09T22:28:41.837Z,95506.68
2022-10-09T22:31:11.270Z,95505.65
2022-10-09T22:33:38.462Z,95508.91
2022-10-09T22:36:06.664Z,95507.41
2022-10-09T22:38:33.794Z,95514.25
2022-10-09T22:41:09.612Z,95511.14
2022-10-09T22:43:37.127Z,95509.66
2022-10-09T22:46:09.841Z,95504.06
2022-10-09T22:48:44.278Z,95504.45
2022-10-09T22:51:14.312Z,95503.61
2022-10-09T22:53:42.094Z,95501.58
2022-10-09T22:56:13.499Z,95500.39
2022-10-09T22:58:40.208Z,95500.38
2022-10-09T23:01:10.867Z,95499.20
2022-10-09T23:03:37.745Z,95500.52
2022-10-09T23:06:07.453Z,95498.63
2022-10-09T23:08:34.373Z,95502.21
2022-10-09T23:11:01.197Z,95501.73
2022-10-09T23:13:27.915Z,95503.09
2022-10-09T23:15:54.643Z,95507.56
2022-10-09T23:18:21.493Z,95504.58
2022-10-09T23:20:48.257Z,95507.67
2022-10-09T23:23:14.905Z,95506.50
2022-10-09T23:25:42.222Z,95506.86
2022-10-09T23:28:09.017Z,95505.25
2022-10-09T23:30:35.699Z,95507.71
2022-10-09T23:33:02.472Z,95513.22
2022-10-09T23:35:29.287Z,95511.23
2022-10-09T23:37:56.353Z,95515.72
2022-10-09T23:40:23.191Z,95517.95
2022-10-09T23:42:50.065Z,95518.63
2022-10-09T23:45:18.296Z,95518.74
2022-10-09T23:47:45.082Z,95520.19
2022-10-09T23:50:11.793Z,95525.45
2022-10-09T23:52:38.529Z,95527.33
2022-10-09T23:55:05.758Z,95529.10
2022-10-09T23:57:35.019Z,95531.27
